Bechtelsville, PA (19505)

2:56 AM EDT on October 23, 2014 (GMT -0400)
Boyertown | Change Station
CLOSE
Current Station
Personal Weather Station
Location: Earl Twp, PA
Elevation: 670 ft
Nearby Weather Stations

Elev 670 ft 40.34 °N, 75.68 °W | Updated 13 minutes ago

Overcast
Overcast
49.1 °F
Feels Like 49 °F
N
0.0
Wind Variable Wind from North
Gusts 20.0 mph

Today
High -- | Low -- °F
--% Chance of Precip.
Yesterday
High -- | Low -- °F
Precip. -- in
7:22 AM 6:11 PM
Waning Crescent, 0% visible
Pressure 29.80 in
Visibility 10.0 miles
Clouds Few 4200 ft
Overcast 5500 ft
Windchill 49 °F
Dew Point 44 °F
Humidity 83%
Rainfall 0.00 in
Snow Depth Not available.
UV 0 out of 12
Pollen .30 out of 12
Ozone Good
PM2.5 Good
Flu Activity Sporadic
METAR KPTW 230554Z AUTO 32013G20KT 10SM FEW042 OVC055 11/07 A2980 RMK AO2 RAE23 SLP090 P0001 60008 T01060072 10117 20100 56016

More Conditions Fewer Conditions

Pressure 29.80 in
Visibility 10.0 miles
Clouds Few 4200 ft
Overcast 5500 ft
Windchill 49 °F
Dew Point 44 °F
Humidity 83%
Rainfall 0.00 in
Snow Depth Not available.
UV 0 out of 12
Pollen .30 out of 12
Ozone Good
PM2.5 Good
Flu Activity Sporadic
METAR KPTW 230554Z AUTO 32013G20KT 10SM FEW042 OVC055 11/07 A2980 RMK AO2 RAE23 SLP090 P0001 60008 T01060072 10117 20100 56016

More Conditions Fewer Conditions

10-Day Weather Forecast

Almanac

Astronomy

Oct. 23, 2014 Rise Set
Actual Time 7:22 AM EDT 6:11 PM EDT
Civil Twilight 6:54 AM EDT 6:38 PM EDT
Nautical Twilight 6:22 AM EDT 7:10 PM EDT
Astronomical Twilight 5:50 AM EDT 7:42 PM EDT
Moon 6:59 AM EDT 6:11 PM EDT
Length of Visible Light 11h 44m
Length of Day
10h 49m
Tomorrow will be 2m 29s shorter.
Waning Crescent, 0% of the Moon is Illuminated
Today
Waning Crescent
Oct 23
New
Oct 30
First Quarter
Nov 6
Full
Nov 14
Last Quarter

Today's Extremes

State Highs State Lows

Community

WunderPhotos

Upload Photos

1,764,194 photos uploaded!

Nearby

Air Quality

  Air Quality AQ Index Pollutant
Yesterday Good
PM2.5
Yesterday Good
OZONE
Current Good
PM2.5
Current Good
OZONE
Thursday Good
PM2.5
Friday Good
PM2.5

Snow Depth

Station Depth Elevation
No new snow has been reported.

Earthquake Activity

City Distance Mag. Time & Date
No recent earthquake activity has been reported nearby.
Minimum magnitude displayed is 2.5.

Coastal Water Temperatures

Place Temperature
No Stations Reporting

Nearby Weather Stations